Time;durP1;ratioP1;P1;durP2;ratioP2;P2;SDS_P1;SDS_P2;PMS_P1;PMS_P2;Temp;Humidity;BMP_temperature;BMP_pressure;BME280_temperature;BME280_humidity;BME280_pressure;Samples;Min_cycle;Max_cycle;Signal;HPM_P1;HPM_P2
2022/06/23 00:01:00;;;;;;;9.10;5.80;;;;;;;25.26;56.29;94380.38;4931030;29;20203;-81
2022/06/23 00:03:31;;;;;;;10.07;5.70;;;;;;;25.26;56.54;94377.75;4898829;29;20204;-77
2022/06/23 00:06:01;;;;;;;8.40;5.95;;;;;;;25.30;56.30;94385.13;4932771;29;20539;-76
2022/06/23 00:08:29;;;;;;;6.55;5.32;;;;;;;25.27;56.57;94381.94;4932431;29;20183;-78
2022/06/23 00:10:58;;;;;;;9.50;5.95;;;;;;;25.24;56.23;94376.38;4932327;29;20659;-81
2022/06/23 00:13:32;;;;;;;8.90;5.60;;;;;;;25.25;56.65;94383.19;4932514;29;20199;-78
2022/06/23 00:16:02;;;;;;;8.50;5.50;;;;;;;25.21;56.37;94382.09;4934911;29;20190;-79
2022/06/23 00:18:34;;;;;;;6.55;5.40;;;;;;;25.21;56.53;94387.31;4935675;29;20265;-78
2022/06/23 00:21:03;;;;;;;13.15;5.53;;;;;;;25.19;56.52;94381.53;4927456;29;20199;-77
2022/06/23 00:23:33;;;;;;;11.93;5.70;;;;;;;25.15;56.58;94383.03;4916672;29;20694;-77
2022/06/23 00:26:04;;;;;;;8.57;6.00;;;;;;;25.09;56.35;94376.94;4916569;29;20667;-77
2022/06/23 00:28:36;;;;;;;8.75;5.50;;;;;;;25.12;56.68;94373.81;4916395;29;20204;-77
2022/06/23 00:31:06;;;;;;;8.52;5.47;;;;;;;25.13;56.83;94380.66;4916639;29;20203;-79
2022/06/23 00:33:40;;;;;;;7.85;5.97;;;;;;;25.10;56.94;94368.03;4918681;29;20195;-77
2022/06/23 00:36:17;;;;;;;9.18;5.47;;;;;;;25.09;56.92;94365.69;4935773;29;20571;-76
2022/06/23 00:38:44;;;;;;;8.27;5.85;;;;;;;25.06;56.90;94343.34;4918453;29;20282;-76
2022/06/23 00:41:17;;;;;;;9.80;5.50;;;;;;;25.06;57.07;94335.50;4918803;29;20196;-78
2022/06/23 00:43:46;;;;;;;9.90;5.22;;;;;;;25.02;56.96;94316.84;4916221;29;20644;-78
2022/06/23 00:46:22;;;;;;;9.50;6.03;;;;;;;24.93;56.98;94315.66;4916543;29;20192;-77
2022/06/23 00:48:55;;;;;;;6.35;5.75;;;;;;;24.99;57.24;94350.53;4916255;29;20195;-77
2022/06/23 00:51:26;;;;;;;7.93;5.43;;;;;;;24.92;57.25;94357.75;4897893;29;20192;-78
2022/06/23 00:53:59;;;;;;;9.15;6.13;;;;;;;24.95;57.38;94359.88;4897076;29;20467;-80
2022/06/23 00:56:41;;;;;;;6.28;5.32;;;;;;;24.92;57.27;94358.56;4897751;29;20207;-79
2022/06/23 00:59:16;;;;;;;7.20;5.00;;;;;;;24.84;57.44;94350.28;4910372;29;20222;-77
2022/06/23 01:01:50;;;;;;;10.60;5.60;;;;;;;24.90;57.58;94357.19;4935042;29;20209;-78
2022/06/23 01:04:29;;;;;;;9.40;5.20;;;;;;;24.89;57.40;94358.22;4934655;29;20194;-76
2022/06/23 01:07:02;;;;;;;7.60;5.70;;;;;;;24.85;57.63;94347.44;4935263;29;20250;-77
2022/06/23 01:09:37;;;;;;;8.38;5.47;;;;;;;24.78;57.40;94341.53;4934773;29;20305;-77
2022/06/23 01:12:14;;;;;;;7.05;5.72;;;;;;;24.67;57.52;94337.16;4934827;29;20191;-78
2022/06/23 01:14:48;;;;;;;7.65;5.15;;;;;;;24.80;57.63;94349.97;4935071;29;20205;-78
2022/06/23 01:17:20;;;;;;;7.60;5.88;;;;;;;24.76;57.57;94356.69;4934915;29;20225;-76
2022/06/23 01:20:12;;;;;;;7.65;5.80;;;;;;;24.74;57.83;94343.03;4916030;29;20238;-77
2022/06/23 01:22:54;;;;;;;8.82;6.63;;;;;;;24.72;57.64;94335.44;4909933;29;20199;-78
2022/06/23 01:25:36;;;;;;;9.43;5.80;;;;;;;24.67;57.85;94324.09;4915434;29;20203;-76
2022/06/23 01:28:10;;;;;;;9.35;5.72;;;;;;;24.67;58.10;94337.97;4915179;29;20194;-77
2022/06/23 01:30:45;;;;;;;9.57;5.63;;;;;;;24.64;57.82;94337.63;4915479;29;20717;-76
2022/06/23 01:33:17;;;;;;;8.45;5.90;;;;;;;24.61;58.06;94332.84;4916306;29;20193;-76
2022/06/23 01:35:54;;;;;;;11.15;6.07;;;;;;;24.62;58.05;94335.25;4934298;29;20203;-80
2022/06/23 01:38:27;;;;;;;8.65;5.20;;;;;;;24.59;58.42;94330.47;4920015;29;20699;-76
2022/06/23 01:40:59;;;;;;;6.63;5.50;;;;;;;24.51;58.42;94309.94;4915248;29;20246;-78
2022/06/23 01:43:35;;;;;;;6.90;5.78;;;;;;;24.56;58.49;94328.31;4915447;29;20264;-78
2022/06/23 01:46:07;;;;;;;9.48;6.13;;;;;;;24.49;58.46;94312.00;4914994;29;20199;-80
2022/06/23 01:48:52;;;;;;;10.32;6.10;;;;;;;24.51;58.51;94313.34;4915815;29;20206;-78
2022/06/23 01:51:22;;;;;;;6.60;5.40;;;;;;;24.49;58.80;94309.38;4915250;29;20270;-80
2022/06/23 01:53:50;;;;;;;7.80;5.93;;;;;;;24.42;58.71;94285.97;4914963;29;20222;-77
2022/06/23 01:56:26;;;;;;;6.20;5.30;;;;;;;24.44;58.52;94296.22;4918629;29;20192;-79
2022/06/23 01:59:04;;;;;;;9.05;6.38;;;;;;;24.41;58.86;94294.84;4933958;29;20218;-79
2022/06/23 02:01:38;;;;;;;8.27;5.68;;;;;;;24.42;58.86;94306.09;4934700;29;20195;-78
2022/06/23 02:04:12;;;;;;;9.52;5.90;;;;;;;24.40;58.90;94300.34;4924156;29;20195;-78
2022/06/23 02:06:47;;;;;;;8.63;6.25;;;;;;;24.33;59.00;94278.72;4915552;29;20216;-78
2022/06/23 02:09:20;;;;;;;7.22;6.10;;;;;;;24.33;59.40;94289.97;4915155;29;20195;-80
2022/06/23 02:11:50;;;;;;;8.35;6.00;;;;;;;24.33;59.10;94294.41;4915315;29;20199;-77
2022/06/23 02:14:33;;;;;;;9.90;5.30;;;;;;;24.31;59.36;94301.66;4914817;29;20206;-78
2022/06/23 02:17:09;;;;;;;9.02;5.72;;;;;;;24.29;59.44;94301.91;4930473;29;20198;-79
2022/06/23 02:19:42;;;;;;;11.85;6.78;;;;;;;24.27;59.30;94302.16;4933661;29;20242;-81
2022/06/23 02:22:16;;;;;;;10.05;6.35;;;;;;;24.23;59.67;94290.56;4933715;29;20285;-77
2022/06/23 02:24:49;;;;;;;9.48;6.22;;;;;;;24.16;59.68;94287.28;4933777;29;20280;-81
2022/06/23 02:27:21;;;;;;;9.63;6.35;;;;;;;24.20;59.89;94293.66;4933162;29;20201;-78
2022/06/23 02:29:56;;;;;;;9.43;6.60;;;;;;;24.19;59.88;94296.50;4933636;29;20579;-79
2022/06/23 02:32:41;;;;;;;9.60;6.05;;;;;;;24.17;59.77;94290.69;4933090;29;20191;-78
2022/06/23 02:35:17;;;;;;;8.55;6.00;;;;;;;24.15;60.13;94303.22;4895322;29;20263;-79
2022/06/23 02:37:58;;;;;;;9.95;6.45;;;;;;;24.13;60.06;94310.47;4895127;29;20572;-78
2022/06/23 02:40:32;;;;;;;6.65;5.93;;;;;;;24.10;60.33;94308.34;4895701;29;20189;-79
2022/06/23 02:43:04;;;;;;;8.10;6.43;;;;;;;24.08;60.58;94303.31;4894863;29;20690;-78
2022/06/23 02:46:00;;;;;;;6.60;5.82;;;;;;;24.07;60.35;94303.56;4895395;29;20212;-77
2022/06/23 02:48:48;;;;;;;8.68;6.20;;;;;;;24.05;60.34;94306.41;4895546;29;20283;-76
2022/06/23 02:51:38;;;;;;;8.63;6.13;;;;;;;24.02;60.66;94305.06;4895119;29;20192;-79
2022/06/23 02:54:27;;;;;;;8.63;6.15;;;;;;;23.98;60.63;94306.53;4930121;29;20837;-79
2022/06/23 02:57:19;;;;;;;10.63;6.15;;;;;;;23.98;60.68;94311.75;4929926;29;20203;-81
2022/06/23 02:59:52;;;;;;;7.63;6.32;;;;;;;23.95;60.55;94317.44;4932963;29;20219;-78
2022/06/23 03:02:31;;;;;;;6.82;5.75;;;;;;;23.81;60.63;94299.63;4915092;29;20203;-77
2022/06/23 03:05:03;;;;;;;10.55;6.20;;;;;;;23.93;60.61;94326.53;4932813;29;20606;-77
2022/06/23 03:07:38;;;;;;;10.23;6.22;;;;;;;23.92;60.74;94324.94;4932863;29;20199;-79
2022/06/23 03:10:13;;;;;;;9.50;6.15;;;;;;;23.92;60.65;94325.75;4933169;29;20231;-76
2022/06/23 03:12:45;;;;;;;11.88;5.93;;;;;;;23.90;60.68;94324.38;4919843;29;20267;-76
2022/06/23 03:15:19;;;;;;;11.98;6.15;;;;;;;23.88;60.35;94326.44;4913826;29;20649;-78
2022/06/23 03:17:52;;;;;;;13.32;6.47;;;;;;;23.92;60.28;94338.81;4914143;29;20206;-79
2022/06/23 03:20:29;;;;;;;16.25;5.65;;;;;;;23.93;60.40;94329.94;4913764;29;20235;-78
2022/06/23 03:23:02;;;;;;;6.15;5.32;;;;;;;23.96;60.55;94329.50;4913545;29;20214;-76
2022/06/23 03:25:34;;;;;;;9.15;5.28;;;;;;;24.00;60.51;94316.75;4913694;29;20239;-78
2022/06/23 03:28:05;;;;;;;12.40;6.07;;;;;;;23.94;60.43;94308.00;4913433;29;20200;-79
2022/06/23 03:30:39;;;;;;;11.90;5.93;;;;;;;23.91;60.49;94282.34;4916613;29;20198;-78
2022/06/23 03:33:18;;;;;;;11.23;5.53;;;;;;;24.06;60.60;94308.00;4932208;29;20708;-79
2022/06/23 03:35:51;;;;;;;17.23;6.25;;;;;;;24.11;60.51;94310.72;4933126;29;20211;-78
2022/06/23 03:41:36;;;;;;;6.78;6.05;;;;;;;24.16;60.68;94302.19;4932923;29;20617;-76
2022/06/23 03:44:05;;;;;;;10.27;6.93;;;;;;;24.19;60.30;94292.06;4932579;29;20202;-79
2022/06/23 03:46:36;;;;;;;10.25;6.60;;;;;;;24.28;60.49;94295.91;4932440;29;20670;-80
2022/06/23 03:49:16;;;;;;;16.50;7.45;;;;;;;24.29;60.25;94300.09;4932638;29;20667;-79
2022/06/23 03:51:50;;;;;;;10.60;6.57;;;;;;;24.41;60.22;94302.69;4917559;29;20195;-78
2022/06/23 03:54:22;;;;;;;10.10;6.78;;;;;;;24.48;59.96;94305.16;4917091;29;20238;-78
2022/06/23 03:56:56;;;;;;;13.38;7.22;;;;;;;24.51;59.86;94308.09;4917483;29;20203;-79
2022/06/23 03:59:29;;;;;;;15.13;7.22;;;;;;;24.63;59.63;94307.28;4916771;29;20242;-78
2022/06/23 04:02:01;;;;;;;11.10;7.28;;;;;;;24.72;59.16;94305.88;4916997;29;20192;-79
2022/06/23 04:04:49;;;;;;;12.75;7.70;;;;;;;24.69;58.94;94294.03;4934031;29;20215;-81
2022/06/23 04:07:43;;;;;;;12.70;6.88;;;;;;;24.92;59.06;94316.69;4936085;29;20648;-78
2022/06/23 04:10:14;;;;;;;10.35;7.38;;;;;;;25.00;58.57;94312.91;4922741;29;20196;-77
2022/06/23 04:12:45;;;;;;;22.15;7.75;;;;;;;25.06;58.32;94317.19;4917439;29;20222;-79
2022/06/23 04:15:17;;;;;;;9.43;6.57;;;;;;;25.11;57.98;94304.19;4917177;29;20196;-78
2022/06/23 04:17:49;;;;;;;12.25;6.82;;;;;;;25.30;57.84;94324.91;4917112;29;20196;-80
2022/06/23 04:20:21;;;;;;;10.18;6.88;;;;;;;25.39;57.29;94326.09;4916691;29;20338;-79
2022/06/23 04:22:53;;;;;;;11.65;7.28;;;;;;;25.46;57.08;94327.53;4916827;29;20663;-76
2022/06/23 04:25:22;;;;;;;11.13;6.95;;;;;;;25.58;56.90;94337.91;4916587;29;20251;-81
2022/06/23 04:27:51;;;;;;;10.05;7.38;;;;;;;25.68;57.18;94340.69;4917396;29;20222;-81
2022/06/23 04:30:27;;;;;;;9.20;7.15;;;;;;;25.76;56.48;94329.00;4933560;29;20193;-80
2022/06/23 04:32:56;;;;;;;11.52;6.43;;;;;;;25.80;56.79;94309.19;4921662;29;20218;-80
2022/06/23 04:35:31;;;;;;;12.98;7.25;;;;;;;25.95;56.80;94312.00;4935848;29;20190;-78
2022/06/23 04:38:05;;;;;;;13.38;7.22;;;;;;;26.03;56.74;94305.53;4935297;29;20195;-76
2022/06/23 04:40:36;;;;;;;8.40;6.78;;;;;;;26.16;56.54;94320.13;4935272;29;20222;-78
2022/06/23 04:43:13;;;;;;;10.85;6.75;;;;;;;26.26;56.47;94317.63;4935362;29;20582;-79
2022/06/23 04:45:49;;;;;;;10.70;6.90;;;;;;;26.28;56.22;94297.19;4935605;29;20194;-77
2022/06/23 04:48:31;;;;;;;14.65;7.05;;;;;;;26.47;55.94;94313.44;4924533;29;20301;-76
2022/06/23 04:51:04;;;;;;;10.73;6.47;;;;;;;26.59;56.11;94308.03;4936000;29;20214;-81
2022/06/23 04:54:04;;;;;;;13.18;6.03;;;;;;;26.74;55.91;94311.63;4935015;29;20662;-81
2022/06/23 04:56:40;;;;;;;9.32;6.68;;;;;;;26.80;55.69;94309.84;4904704;29;20601;-78
2022/06/23 04:59:31;;;;;;;9.32;6.15;;;;;;;26.99;54.99;94318.94;4894970;29;20230;-80
2022/06/23 05:02:03;;;;;;;10.68;6.53;;;;;;;27.11;54.86;94310.94;4865876;29;20209;-77
2022/06/23 05:04:38;;;;;;;12.73;6.47;;;;;;;27.23;54.56;94308.16;4876216;29;20208;-79
2022/06/23 05:07:23;;;;;;;8.52;5.78;;;;;;;27.40;56.06;94302.75;4876148;29;20561;-78
2022/06/23 05:09:59;;;;;;;12.98;6.15;;;;;;;27.54;57.63;94284.72;4876081;29;20221;-82
2022/06/23 05:12:31;;;;;;;13.15;6.65;;;;;;;27.78;57.07;94306.97;4892245;29;20196;-80
2022/06/23 05:15:05;;;;;;;17.42;6.82;;;;;;;28.06;56.51;94300.53;4895017;29;20216;-82
2022/06/23 05:17:35;;;;;;;11.05;6.10;;;;;;;28.35;56.19;94300.94;4913972;29;20194;-84
2022/06/23 05:20:06;;;;;;;11.10;6.20;;;;;;;28.74;56.30;94309.22;4917184;29;20318;-83
2022/06/23 05:22:37;;;;;;;9.93;6.53;;;;;;;29.14;54.91;94322.72;4919641;29;20207;-83
2022/06/23 05:25:23;;;;;;;20.10;6.35;;;;;;;29.44;53.86;94320.09;4899559;29;20663;-91
2022/06/23 05:27:52;;;;;;;21.30;6.22;;;;;;;29.70;53.40;94302.44;4897188;29;20204;-86
2022/06/23 05:30:26;;;;;;;11.70;6.40;;;;;;;29.95;51.52;94287.63;4897591;29;20216;-83
2022/06/23 05:33:00;;;;;;;11.10;6.57;;;;;;;30.19;50.44;94287.84;4904178;29;20196;-83
2022/06/23 05:35:33;;;;;;;13.07;6.03;;;;;;;30.42;50.16;94321.50;4903478;29;20195;-86
2022/06/23 05:38:06;;;;;;;13.57;6.00;;;;;;;30.59;50.10;94334.34;4906703;29;20218;-82
2022/06/23 05:40:37;;;;;;;15.02;6.25;;;;;;;30.71;49.82;94313.69;4920248;29;20218;-80
2022/06/23 05:43:05;;;;;;;11.82;6.05;;;;;;;30.73;50.29;94287.84;4919834;29;20578;-79
2022/06/23 05:45:38;;;;;;;12.55;6.82;;;;;;;30.60;50.49;94300.81;4920188;29;20203;-80
2022/06/23 05:48:07;;;;;;;9.63;5.88;;;;;;;30.54;50.41;94347.59;4919095;29;20188;-80
2022/06/23 05:50:44;;;;;;;15.48;6.50;;;;;;;30.40;50.06;94386.19;4906785;29;20310;-81
2022/06/23 05:53:27;;;;;;;12.82;7.22;;;;;;;30.23;49.84;94598.34;4897658;29;20196;-81
2022/06/23 05:56:00;;;;;;;15.70;7.82;;;;;;;30.05;50.03;94677.94;4899749;29;20184;-78
2022/06/23 05:58:32;;;;;;;17.67;7.50;;;;;;;29.82;50.21;94666.00;4900713;29;20268;-82
2022/06/23 06:01:10;;;;;;;17.95;7.15;;;;;;;29.55;50.89;94518.53;4899840;29;20774;-81
2022/06/23 06:03:44;;;;;;;10.80;7.07;;;;;;;29.22;51.20;94512.66;4911664;29;20192;-75
2022/06/23 06:06:11;;;;;;;19.42;7.40;;;;;;;29.02;51.98;94569.69;4916038;29;20203;-77
2022/06/23 06:11:26;;;;;;;9.85;6.40;;;;;;;28.44;54.06;94551.97;4915311;29;20579;-83
2022/06/23 06:13:54;;;;;;;12.88;6.40;;;;;;;28.20;54.32;94563.88;4916647;29;20200;-82
2022/06/23 06:16:22;;;;;;;13.70;6.18;;;;;;;27.99;55.09;94570.78;4917991;29;20670;-81
2022/06/23 06:18:49;;;;;;;11.05;5.88;;;;;;;27.79;55.17;94558.22;4916581;29;20307;-81
2022/06/23 06:21:18;;;;;;;12.75;6.90;;;;;;;27.64;55.99;94542.28;4892625;29;20228;-86
2022/06/23 06:23:54;;;;;;;10.52;5.90;;;;;;;27.47;56.62;94521.38;4876409;29;20212;-79
2022/06/23 06:26:24;;;;;;;19.13;6.78;;;;;;;27.32;57.20;94477.34;4876524;29;20235;-83
2022/06/23 06:28:56;;;;;;;14.05;6.13;;;;;;;27.18;57.38;94476.94;4878672;29;20195;-82
2022/06/23 06:31:30;;;;;;;7.47;5.47;;;;;;;27.05;58.32;94460.75;4879146;29;20207;-82
2022/06/23 06:34:04;;;;;;;9.43;6.65;;;;;;;26.92;58.41;94464.53;4894463;29;20275;-81
2022/06/23 06:36:36;;;;;;;15.57;5.68;;;;;;;26.82;58.95;94467.84;4897643;29;20200;-83
2022/06/23 06:39:11;;;;;;;10.73;5.05;;;;;;;26.61;59.17;94448.44;4897955;29;20680;-83
2022/06/23 06:41:40;;;;;;;10.95;5.68;;;;;;;26.62;59.52;94454.47;4902631;29;20200;-84
2022/06/23 06:44:10;;;;;;;8.88;5.30;;;;;;;26.54;60.24;94460.91;4901786;29;20206;-83
2022/06/23 06:46:39;;;;;;;9.57;5.32;;;;;;;26.46;60.39;94449.00;4897909;29;20256;-83
2022/06/23 06:49:07;;;;;;;10.73;4.43;;;;;;;26.41;60.42;94435.00;4877063;29;20204;-79
2022/06/23 06:51:34;;;;;;;8.27;4.97;;;;;;;26.37;60.76;94439.94;4896087;29;20188;-79
2022/06/23 06:54:06;;;;;;;7.55;4.47;;;;;;;26.32;60.58;94428.59;4898353;29;20197;-77
2022/06/23 06:56:41;;;;;;;9.75;4.57;;;;;;;26.27;60.59;94443.22;4893780;29;20188;-84
2022/06/23 06:59:19;;;;;;;9.00;4.28;;;;;;;26.20;60.52;94432.09;4898509;29;20200;-83
2022/06/23 07:01:51;;;;;;;5.88;3.90;;;;;;;26.14;60.62;94440.16;4894255;29;20640;-78
2022/06/23 07:04:27;;;;;;;8.00;4.60;;;;;;;25.90;60.78;94416.72;4893298;29;20207;-79
2022/06/23 07:06:57;;;;;;;8.07;4.35;;;;;;;26.07;60.83;94436.91;4893818;29;20207;-80
2022/06/23 07:09:32;;;;;;;5.78;3.40;;;;;;;26.07;60.75;94440.31;4893819;29;20204;-80
2022/06/23 07:12:07;;;;;;;8.10;4.78;;;;;;;25.98;60.49;94428.66;4893486;29;20192;-80
2022/06/23 07:14:43;;;;;;;5.82;3.42;;;;;;;26.04;60.58;94448.66;4893074;29;20204;-82
2022/06/23 07:17:18;;;;;;;4.30;3.45;;;;;;;26.05;60.88;94452.88;4892303;29;20199;-79
2022/06/23 07:19:53;;;;;;;6.57;4.00;;;;;;;26.01;61.02;94444.69;4892359;29;20948;-79
2022/06/23 07:22:30;;;;;;;6.63;4.05;;;;;;;26.09;61.13;94453.19;4895193;29;20228;-85
2022/06/23 07:25:02;;;;;;;5.28;3.38;;;;;;;26.08;61.07;94456.81;4905027;29;20195;-83
2022/06/23 07:27:37;;;;;;;7.35;4.18;;;;;;;26.17;61.25;94479.00;4917642;29;20206;-86
2022/06/23 07:30:07;;;;;;;6.03;3.83;;;;;;;26.17;60.74;94479.78;4926875;29;20209;-76
2022/06/23 07:32:44;;;;;;;6.97;3.95;;;;;;;26.27;60.96;94484.38;4921182;29;20188;-75
2022/06/23 07:35:33;;;;;;;7.28;3.55;;;;;;;26.44;60.94;94485.19;4918126;29;20199;-75
2022/06/23 07:38:05;;;;;;;4.63;3.35;;;;;;;26.61;62.19;94479.13;4921983;29;20196;-80
2022/06/23 07:40:38;;;;;;;7.05;3.80;;;;;;;26.93;63.07;94492.38;4917972;29;20231;-76
2022/06/23 07:43:12;;;;;;;6.07;4.38;;;;;;;27.17;62.96;94503.44;4918295;29;20582;-76
2022/06/23 07:45:47;;;;;;;8.52;4.30;;;;;;;27.41;62.40;94506.56;4917612;29;20187;-79
2022/06/23 07:48:14;;;;;;;4.85;4.10;;;;;;;27.62;61.84;94497.06;4915707;29;20262;-78
2022/06/23 07:50:41;;;;;;;5.13;4.25;;;;;;;27.88;61.15;94498.13;4898303;29;20196;-75
2022/06/23 07:53:16;;;;;;;8.55;4.93;;;;;;;28.13;60.69;94505.41;4898785;29;20196;-86
2022/06/23 07:55:45;;;;;;;6.60;4.80;;;;;;;28.31;60.37;94510.28;4898778;29;20575;-86
2022/06/23 07:58:14;;;;;;;7.95;4.55;;;;;;;28.44;59.35;94525.66;4898993;29;20208;-80
2022/06/23 08:00:45;;;;;;;6.93;5.10;;;;;;;28.53;58.97;94515.44;4899267;29;20267;-82
2022/06/23 08:03:15;;;;;;;8.10;5.13;;;;;;;28.61;58.43;94507.06;4899764;29;20211;-81
2022/06/23 08:05:48;;;;;;;7.05;4.95;;;;;;;28.75;57.99;94494.25;4898943;29;20188;-83
2022/06/23 08:08:20;;;;;;;7.00;4.55;;;;;;;28.99;58.01;94510.47;4899590;29;20260;-80
2022/06/23 08:12:52;;;;;;;7.28;4.78;;;;;;;29.19;57.51;94515.81;4898576;29;20279;-84
2022/06/23 08:13:40;;;;;;;9.07;4.53;;;;;;;29.38;56.76;94513.50;4898060;29;20256;-84
2022/06/23 08:19:00;;;;;;;10.68;4.30;;;;;;;29.75;55.10;94483.56;4897817;29;20717;-83
2022/06/23 08:21:30;;;;;;;7.15;4.53;;;;;;;30.02;55.40;94483.28;4898216;29;20603;-79
2022/06/23 08:24:01;;;;;;;8.40;4.03;;;;;;;30.35;54.60;94502.28;4898302;29;20184;-84
2022/06/23 08:26:29;;;;;;;4.90;4.07;;;;;;;30.64;53.38;94494.56;4898281;29;20196;-79
2022/06/23 08:29:05;;;;;;;4.32;3.40;;;;;;;30.92;52.49;94482.66;4898034;29;20283;-81
2022/06/23 08:31:32;;;;;;;4.40;3.53;;;;;;;31.14;51.50;94479.66;4897763;29;20196;-79
2022/06/23 08:34:00;;;;;;;7.00;3.65;;;;;;;31.36;51.10;94479.31;4898020;29;20579;-82
2022/06/23 08:36:34;;;;;;;6.78;3.85;;;;;;;31.68;51.01;94484.09;4897539;29;20193;-80
2022/06/23 08:39:08;;;;;;;5.43;4.03;;;;;;;32.06;50.90;94481.75;4897939;29;20200;-83
2022/06/23 08:41:41;;;;;;;3.92;3.38;;;;;;;32.44;49.84;94478.25;4897698;29;20610;-83
2022/06/23 08:44:15;;;;;;;5.85;3.58;;;;;;;32.80;49.26;94477.06;4897589;29;20211;-82
2022/06/23 08:46:55;;;;;;;3.83;3.25;;;;;;;33.13;48.65;94478.81;4897778;29;20688;-85
2022/06/23 08:49:28;;;;;;;6.88;3.72;;;;;;;33.43;47.49;94479.50;4897557;29;20292;-76
2022/06/23 08:52:03;;;;;;;5.78;3.47;;;;;;;33.65;47.10;94471.00;4897616;29;20188;-84
2022/06/23 08:54:37;;;;;;;6.22;3.72;;;;;;;33.80;46.50;94468.09;4897394;29;20207;-79
2022/06/23 08:57:12;;;;;;;4.82;3.15;;;;;;;34.02;46.20;94458.75;4897843;29;20648;-84
2022/06/23 08:59:47;;;;;;;7.20;3.55;;;;;;;34.18;45.03;94454.78;4897621;29;20633;-79
2022/06/23 09:02:20;;;;;;;5.45;3.88;;;;;;;34.28;44.23;94459.13;4897351;29;20222;-82
2022/06/23 09:04:57;;;;;;;6.60;3.55;;;;;;;34.51;44.28;94476.81;4897765;29;20200;-82
2022/06/23 09:07:36;;;;;;;6.95;3.60;;;;;;;34.72;43.89;94474.56;4898053;29;20206;-82
2022/06/23 09:10:13;;;;;;;6.30;2.95;;;;;;;34.86;43.30;94471.91;4898656;29;20222;-84
2022/06/23 09:12:47;;;;;;;4.10;3.20;;;;;;;34.95;43.25;94460.25;4897565;29;20184;-78
2022/06/23 09:15:39;;;;;;;4.28;3.35;;;;;;;35.03;42.82;94460.69;4899598;29;20196;-81
2022/06/23 09:18:22;;;;;;;6.43;4.05;;;;;;;35.09;42.85;94456.84;4906006;29;20200;-77
2022/06/23 09:21:28;;;;;;;5.68;3.72;;;;;;;35.18;42.36;94452.38;4902929;29;20691;-75
2022/06/23 09:24:26;;;;;;;8.32;4.22;;;;;;;35.35;41.91;94454.41;4847409;29;20615;-79
2022/06/23 09:26:59;;;;;;;5.88;4.00;;;;;;;35.44;41.78;94455.28;4846181;29;20225;-75
2022/06/23 09:29:46;;;;;;;5.45;3.50;;;;;;;35.51;42.08;94452.25;4849394;29;20272;-78
2022/06/23 09:32:24;;;;;;;9.15;4.32;;;;;;;35.57;41.75;94443.84;4842199;29;20202;-84
2022/06/23 09:35:20;;;;;;;7.55;4.20;;;;;;;35.62;41.46;94434.94;4839589;29;20198;-82
2022/06/23 09:38:01;;;;;;;6.63;3.88;;;;;;;35.62;41.66;94433.09;4839019;29;20198;-85
2022/06/23 09:40:47;;;;;;;4.20;3.60;;;;;;;35.59;41.58;94431.03;4839533;29;20223;-79
2022/06/23 09:43:54;;;;;;;5.68;3.55;;;;;;;35.58;41.49;94433.97;4839235;29;20675;-85
2022/06/23 09:46:56;;;;;;;5.45;3.47;;;;;;;35.53;41.44;94434.09;4820708;29;20291;-84
2022/06/23 09:49:51;;;;;;;4.47;3.67;;;;;;;35.46;41.30;94431.06;4820165;29;20213;-82
2022/06/23 09:52:44;;;;;;;5.60;3.88;;;;;;;35.40;41.21;94427.69;4820847;29;20681;-84
2022/06/23 09:55:38;;;;;;;6.40;3.80;;;;;;;35.34;41.37;94428.91;4832067;29;20601;-79
2022/06/23 09:58:34;;;;;;;4.55;3.92;;;;;;;35.30;41.46;94427.94;4838827;29;20585;-82
2022/06/23 10:01:15;;;;;;;6.35;3.53;;;;;;;35.29;41.33;94426.38;4838363;29;20609;-80
2022/06/23 10:03:59;;;;;;;5.45;4.13;;;;;;;35.24;41.51;94437.91;4839796;29;20194;-82
2022/06/23 10:06:52;;;;;;;9.50;4.10;;;;;;;35.17;41.46;94418.91;4838727;29;20190;-84
2022/06/23 10:09:33;;;;;;;10.23;4.43;;;;;;;35.16;41.73;94428.75;4838185;29;20209;-77
2022/06/23 10:12:19;;;;;;;6.55;4.07;;;;;;;35.02;41.72;94404.09;4838619;29;20198;-81
2022/06/23 10:15:06;;;;;;;8.48;4.13;;;;;;;35.08;41.68;94434.00;4838273;29;20202;-78
2022/06/23 10:18:02;;;;;;;8.57;4.25;;;;;;;35.01;41.62;94433.59;4838238;29;20202;-82
2022/06/23 10:20:45;;;;;;;8.80;4.15;;;;;;;34.91;41.80;94429.25;4801623;29;21059;-76
2022/06/23 10:23:43;;;;;;;7.80;4.30;;;;;;;34.86;41.98;94421.41;4841322;29;20717;-83
2022/06/23 10:26:28;;;;;;;8.18;4.25;;;;;;;34.77;41.87;94408.03;4856608;29;20651;-82
2022/06/23 10:29:28;;;;;;;5.97;4.35;;;;;;;34.73;41.99;94409.69;4856706;29;20201;-77
2022/06/23 10:32:17;;;;;;;5.47;4.45;;;;;;;34.65;42.20;94391.78;4856588;29;20658;-76
2022/06/23 10:35:04;;;;;;;8.50;3.85;;;;;;;34.62;42.46;94387.84;4857041;29;20206;-77
2022/06/23 10:37:53;;;;;;;4.13;3.65;;;;;;;34.58;42.25;94394.84;4858391;29;20202;-80
2022/06/23 10:40:48;;;;;;;7.35;4.13;;;;;;;34.49;42.02;94379.88;4856242;29;20720;-79
2022/06/23 10:44:12;;;;;;;5.95;4.07;;;;;;;34.45;42.63;94387.63;4858020;29;20212;-77
2022/06/23 10:46:43;;;;;;;4.88;4.13;;;;;;;34.39;42.62;94383.50;4852257;29;20204;-75
2022/06/23 10:49:43;;;;;;;5.57;3.97;;;;;;;34.29;42.60;94381.84;4856301;29;20193;-75
2022/06/23 10:52:48;;;;;;;4.65;4.00;;;;;;;34.19;42.86;94376.69;4856461;29;20205;-77
2022/06/23 10:55:31;;;;;;;6.45;4.07;;;;;;;34.13;43.00;94376.03;4856345;29;20293;-75
2022/06/23 10:58:32;;;;;;;6.72;4.18;;;;;;;34.08;43.08;94372.69;4891040;29;20193;-77
2022/06/23 11:01:14;;;;;;;6.40;4.32;;;;;;;34.00;43.50;94374.13;4895561;29;20223;-75
2022/06/23 11:04:09;;;;;;;5.85;3.70;;;;;;;33.97;43.46;94371.28;4895431;29;20211;-77
2022/06/23 11:06:53;;;;;;;8.45;4.25;;;;;;;33.82;43.66;94356.38;4895232;29;20287;-78
2022/06/23 11:09:44;;;;;;;4.20;3.80;;;;;;;33.78;43.92;94372.09;4895705;29;20259;-78
2022/06/23 11:12:26;;;;;;;10.32;4.85;;;;;;;33.63;43.82;94353.78;4890241;29;20200;-79
2022/06/23 11:15:07;;;;;;;8.93;4.22;;;;;;;33.63;43.78;94362.50;4895571;29;20204;-79
2022/06/23 11:17:55;;;;;;;6.18;4.38;;;;;;;33.62;43.81;94360.16;4895424;29;20664;-79
2022/06/23 11:20:35;;;;;;;7.95;4.22;;;;;;;33.59;44.02;94368.69;4895291;29;20236;-76
2022/06/23 11:23:10;;;;;;;9.85;4.40;;;;;;;33.58;44.09;94370.56;4895182;29;20195;-78
2022/06/23 11:25:59;;;;;;;5.25;4.22;;;;;;;33.57;44.13;94366.34;4895588;29;20204;-76
2022/06/23 11:28:40;;;;;;;5.43;4.28;;;;;;;33.54;43.92;94368.78;4895523;29;20207;-79
2022/06/23 11:31:21;;;;;;;7.38;4.05;;;;;;;33.48;44.33;94380.56;4895601;29;20644;-77
2022/06/23 11:34:14;;;;;;;8.48;4.50;;;;;;;33.40;44.24;94390.69;4895705;29;20252;-80
2022/06/23 11:36:57;;;;;;;7.82;4.40;;;;;;;33.34;44.55;94397.16;4895243;29;20212;-81
2022/06/23 11:39:40;;;;;;;6.47;3.90;;;;;;;33.31;44.69;94389.78;4895540;29;20275;-82
2022/06/23 11:42:34;;;;;;;7.50;4.28;;;;;;;33.29;44.82;94394.59;4895496;29;20232;-80
2022/06/23 11:45:17;;;;;;;6.13;4.40;;;;;;;33.30;44.57;94400.69;4893310;29;20637;-80
2022/06/23 11:47:57;;;;;;;7.70;3.90;;;;;;;33.30;44.89;94384.78;4896503;29;20239;-78
2022/06/23 11:50:38;;;;;;;9.23;4.40;;;;;;;33.30;44.58;94393.50;4896156;29;20196;-75
2022/06/23 11:53:19;;;;;;;6.10;4.00;;;;;;;33.34;44.87;94396.38;4894957;29;20188;-75
2022/06/23 11:55:49;;;;;;;4.80;3.58;;;;;;;33.31;44.75;94395.09;4895554;29;20188;-75
2022/06/23 11:58:49;;;;;;;5.25;4.20;;;;;;;33.31;44.92;94397.72;4894986;29;20208;-75
2022/06/23 12:01:20;;;;;;;5.65;3.97;;;;;;;33.34;44.96;94397.16;4895131;29;20224;-78
2022/06/23 12:04:25;;;;;;;6.63;3.80;;;;;;;33.39;45.00;94386.47;4895137;29;20199;-75
2022/06/23 12:07:10;;;;;;;10.55;3.85;;;;;;;33.47;45.11;94390.38;4856080;29;20294;-75
2022/06/23 12:09:46;;;;;;;4.60;3.53;;;;;;;33.53;44.49;94375.94;4855371;29;20396;-76
2022/06/23 12:12:13;;;;;;;5.03;3.63;;;;;;;33.57;44.51;94374.28;4876994;29;20193;-74
2022/06/23 12:14:41;;;;;;;7.20;4.03;;;;;;;33.60;44.52;94355.16;4877342;29;20212;-75
2022/06/23 12:17:14;;;;;;;6.95;3.70;;;;;;;33.60;44.49;94359.69;4877613;29;20269;-74
2022/06/23 12:19:47;;;;;;;8.32;4.63;;;;;;;33.58;44.28;94356.50;4877305;29;20229;-76
2022/06/23 12:22:19;;;;;;;6.10;3.45;;;;;;;33.56;44.35;94370.06;4877423;29;20623;-75
2022/06/23 12:25:03;;;;;;;7.70;4.13;;;;;;;33.53;44.12;94368.00;4876901;29;20631;-74
2022/06/23 12:27:37;;;;;;;8.23;3.53;;;;;;;33.49;44.41;94363.56;4877207;29;20288;-74